sensor_id;sensor_type;location;lat;lon;timestamp;P1;durP1;ratioP1;P2;durP2;ratioP2
11447;SDS011;43755;49.736;8.734;2022-09-03T00:01:56;1.00;;;1.00;;
11447;SDS011;43755;49.736;8.734;2022-09-03T00:04:04;0.85;;;0.85;;
11447;SDS011;43755;49.736;8.734;2022-09-03T00:06:15;1.75;;;1.02;;
11447;SDS011;43755;49.736;8.734;2022-09-03T00:08:22;0.77;;;0.77;;
11447;SDS011;43755;49.736;8.734;2022-09-03T00:10:33;2.58;;;1.30;;
11447;SDS011;43755;49.736;8.734;2022-09-03T00:12:42;2.00;;;1.00;;
11447;SDS011;43755;49.736;8.734;2022-09-03T00:14:47;0.90;;;0.90;;
11447;SDS011;43755;49.736;8.734;2022-09-03T00:16:53;1.38;;;0.82;;
11447;SDS011;43755;49.736;8.734;2022-09-03T00:18:57;0.88;;;0.65;;
11447;SDS011;43755;49.736;8.734;2022-09-03T00:21:05;2.42;;;0.90;;
11447;SDS011;43755;49.736;8.734;2022-09-03T00:23:11;0.80;;;0.80;;
11447;SDS011;43755;49.736;8.734;2022-09-03T00:25:18;0.98;;;0.98;;
11447;SDS011;43755;49.736;8.734;2022-09-03T00:27:25;0.85;;;0.70;;
11447;SDS011;43755;49.736;8.734;2022-09-03T00:29:31;3.33;;;0.82;;
11447;SDS011;43755;49.736;8.734;2022-09-03T00:31:37;1.00;;;1.00;;
11447;SDS011;43755;49.736;8.734;2022-09-03T00:33:43;1.08;;;1.00;;
11447;SDS011;43755;49.736;8.734;2022-09-03T00:35:48;1.00;;;1.00;;
11447;SDS011;43755;49.736;8.734;2022-09-03T00:37:57;1.00;;;1.00;;
11447;SDS011;43755;49.736;8.734;2022-09-03T00:40:00;0.80;;;0.80;;
11447;SDS011;43755;49.736;8.734;2022-09-03T00:42:08;2.33;;;1.05;;
11447;SDS011;43755;49.736;8.734;2022-09-03T00:44:31;2.45;;;0.90;;
11447;SDS011;43755;49.736;8.734;2022-09-03T00:46:46;1.38;;;0.93;;
11447;SDS011;43755;49.736;8.734;2022-09-03T00:48:59;1.05;;;0.95;;
11447;SDS011;43755;49.736;8.734;2022-09-03T00:51:17;3.65;;;1.10;;
11447;SDS011;43755;49.736;8.734;2022-09-03T00:53:31;2.40;;;1.10;;
11447;SDS011;43755;49.736;8.734;2022-09-03T00:55:41;1.08;;;1.08;;
11447;SDS011;43755;49.736;8.734;2022-09-03T00:57:52;1.13;;;0.95;;
11447;SDS011;43755;49.736;8.734;2022-09-03T01:00:08;0.82;;;0.80;;
11447;SDS011;43755;49.736;8.734;2022-09-03T01:02:14;1.25;;;1.17;;
11447;SDS011;43755;49.736;8.734;2022-09-03T01:04:29;0.90;;;0.90;;
11447;SDS011;43755;49.736;8.734;2022-09-03T01:06:41;0.85;;;0.85;;
11447;SDS011;43755;49.736;8.734;2022-09-03T01:09:01;1.00;;;1.00;;
11447;SDS011;43755;49.736;8.734;2022-09-03T01:11:14;1.65;;;1.08;;
11447;SDS011;43755;49.736;8.734;2022-09-03T01:13:27;4.35;;;1.10;;
11447;SDS011;43755;49.736;8.734;2022-09-03T01:15:35;0.88;;;0.88;;
11447;SDS011;43755;49.736;8.734;2022-09-03T01:17:47;1.92;;;1.10;;
11447;SDS011;43755;49.736;8.734;2022-09-03T01:20:01;1.02;;;0.80;;
11447;SDS011;43755;49.736;8.734;2022-09-03T01:22:17;2.75;;;0.90;;
11447;SDS011;43755;49.736;8.734;2022-09-03T01:24:43;1.20;;;1.10;;
11447;SDS011;43755;49.736;8.734;2022-09-03T01:27:02;1.30;;;0.85;;
11447;SDS011;43755;49.736;8.734;2022-09-03T01:29:18;1.67;;;0.90;;
11447;SDS011;43755;49.736;8.734;2022-09-03T01:31:27;2.15;;;1.10;;
11447;SDS011;43755;49.736;8.734;2022-09-03T01:33:36;1.05;;;0.90;;
11447;SDS011;43755;49.736;8.734;2022-09-03T01:35:42;0.75;;;0.75;;
11447;SDS011;43755;49.736;8.734;2022-09-03T01:37:51;2.38;;;1.00;;
11447;SDS011;43755;49.736;8.734;2022-09-03T01:40:02;0.90;;;0.90;;
11447;SDS011;43755;49.736;8.734;2022-09-03T01:42:18;2.35;;;1.00;;
11447;SDS011;43755;49.736;8.734;2022-09-03T01:44:27;1.83;;;1.10;;
11447;SDS011;43755;49.736;8.734;2022-09-03T01:46:38;2.50;;;1.10;;
11447;SDS011;43755;49.736;8.734;2022-09-03T01:48:42;1.00;;;0.90;;
11447;SDS011;43755;49.736;8.734;2022-09-03T01:50:49;2.33;;;1.00;;
11447;SDS011;43755;49.736;8.734;2022-09-03T01:52:58;0.85;;;0.85;;
11447;SDS011;43755;49.736;8.734;2022-09-03T01:55:09;1.20;;;1.10;;
11447;SDS011;43755;49.736;8.734;2022-09-03T01:57:34;2.20;;;0.88;;
11447;SDS011;43755;49.736;8.734;2022-09-03T01:59:46;1.05;;;1.05;;
11447;SDS011;43755;49.736;8.734;2022-09-03T02:01:54;1.45;;;1.15;;
11447;SDS011;43755;49.736;8.734;2022-09-03T02:04:11;1.25;;;1.10;;
11447;SDS011;43755;49.736;8.734;2022-09-03T02:06:16;1.00;;;0.85;;
11447;SDS011;43755;49.736;8.734;2022-09-03T02:08:19;1.30;;;1.20;;
11447;SDS011;43755;49.736;8.734;2022-09-03T02:10:21;1.33;;;1.23;;
11447;SDS011;43755;49.736;8.734;2022-09-03T02:12:29;0.90;;;0.90;;
11447;SDS011;43755;49.736;8.734;2022-09-03T02:14:33;1.75;;;1.02;;
11447;SDS011;43755;49.736;8.734;2022-09-03T02:16:37;1.23;;;1.00;;
11447;SDS011;43755;49.736;8.734;2022-09-03T02:18:40;1.00;;;0.90;;
11447;SDS011;43755;49.736;8.734;2022-09-03T02:20:45;1.08;;;0.98;;
11447;SDS011;43755;49.736;8.734;2022-09-03T02:22:49;0.95;;;0.95;;
11447;SDS011;43755;49.736;8.734;2022-09-03T02:24:51;1.25;;;0.90;;
11447;SDS011;43755;49.736;8.734;2022-09-03T02:26:53;1.08;;;0.98;;
11447;SDS011;43755;49.736;8.734;2022-09-03T02:28:54;2.00;;;1.20;;
11447;SDS011;43755;49.736;8.734;2022-09-03T02:30:58;1.65;;;0.95;;
11447;SDS011;43755;49.736;8.734;2022-09-03T02:33:00;0.90;;;0.90;;
11447;SDS011;43755;49.736;8.734;2022-09-03T02:35:02;1.13;;;1.02;;
11447;SDS011;43755;49.736;8.734;2022-09-03T02:37:10;1.10;;;1.00;;
11447;SDS011;43755;49.736;8.734;2022-09-03T02:39:13;0.93;;;0.90;;
11447;SDS011;43755;49.736;8.734;2022-09-03T02:41:15;0.80;;;0.80;;
11447;SDS011;43755;49.736;8.734;2022-09-03T02:43:17;1.00;;;1.00;;
11447;SDS011;43755;49.736;8.734;2022-09-03T02:45:23;1.00;;;1.00;;
11447;SDS011;43755;49.736;8.734;2022-09-03T02:47:28;0.90;;;0.90;;
11447;SDS011;43755;49.736;8.734;2022-09-03T02:49:34;0.98;;;0.93;;
11447;SDS011;43755;49.736;8.734;2022-09-03T02:51:37;1.67;;;1.10;;
11447;SDS011;43755;49.736;8.734;2022-09-03T02:53:40;0.88;;;0.88;;
11447;SDS011;43755;49.736;8.734;2022-09-03T02:55:42;1.00;;;1.00;;
11447;SDS011;43755;49.736;8.734;2022-09-03T02:57:44;2.95;;;1.17;;
11447;SDS011;43755;49.736;8.734;2022-09-03T02:59:46;1.33;;;0.98;;
11447;SDS011;43755;49.736;8.734;2022-09-03T03:01:47;2.58;;;1.30;;
11447;SDS011;43755;49.736;8.734;2022-09-03T03:03:48;1.50;;;0.90;;
11447;SDS011;43755;49.736;8.734;2022-09-03T03:05:52;5.55;;;1.30;;
11447;SDS011;43755;49.736;8.734;2022-09-03T03:07:55;0.98;;;0.98;;
11447;SDS011;43755;49.736;8.734;2022-09-03T03:09:57;1.20;;;1.20;;
11447;SDS011;43755;49.736;8.734;2022-09-03T03:11:59;2.38;;;1.10;;
11447;SDS011;43755;49.736;8.734;2022-09-03T03:14:00;1.67;;;1.08;;
11447;SDS011;43755;49.736;8.734;2022-09-03T03:16:03;0.95;;;0.95;;
11447;SDS011;43755;49.736;8.734;2022-09-03T03:18:06;2.15;;;1.10;;
11447;SDS011;43755;49.736;8.734;2022-09-03T03:20:10;1.75;;;1.00;;
11447;SDS011;43755;49.736;8.734;2022-09-03T03:22:13;1.98;;;1.13;;
11447;SDS011;43755;49.736;8.734;2022-09-03T03:24:15;1.27;;;1.10;;
11447;SDS011;43755;49.736;8.734;2022-09-03T03:26:17;0.80;;;0.80;;
11447;SDS011;43755;49.736;8.734;2022-09-03T03:28:20;1.27;;;1.17;;
11447;SDS011;43755;49.736;8.734;2022-09-03T03:30:21;1.95;;;0.82;;
11447;SDS011;43755;49.736;8.734;2022-09-03T03:32:23;0.85;;;0.85;;
11447;SDS011;43755;49.736;8.734;2022-09-03T03:34:24;1.42;;;1.30;;
11447;SDS011;43755;49.736;8.734;2022-09-03T03:36:26;0.80;;;0.80;;
11447;SDS011;43755;49.736;8.734;2022-09-03T03:38:31;1.33;;;1.05;;
11447;SDS011;43755;49.736;8.734;2022-09-03T03:40:32;3.42;;;1.00;;
11447;SDS011;43755;49.736;8.734;2022-09-03T03:42:34;0.90;;;0.90;;
11447;SDS011;43755;49.736;8.734;2022-09-03T03:44:35;1.00;;;0.90;;
11447;SDS011;43755;49.736;8.734;2022-09-03T03:46:37;1.30;;;1.20;;
11447;SDS011;43755;49.736;8.734;2022-09-03T03:48:40;1.38;;;1.00;;
11447;SDS011;43755;49.736;8.734;2022-09-03T03:50:41;1.23;;;1.08;;
11447;SDS011;43755;49.736;8.734;2022-09-03T03:52:43;0.80;;;0.80;;
11447;SDS011;43755;49.736;8.734;2022-09-03T03:54:46;1.33;;;0.98;;
11447;SDS011;43755;49.736;8.734;2022-09-03T03:56:49;1.23;;;1.08;;
11447;SDS011;43755;49.736;8.734;2022-09-03T03:58:50;1.45;;;1.13;;
11447;SDS011;43755;49.736;8.734;2022-09-03T04:00:52;0.90;;;0.90;;
11447;SDS011;43755;49.736;8.734;2022-09-03T04:02:54;3.58;;;1.10;;
11447;SDS011;43755;49.736;8.734;2022-09-03T04:04:55;2.13;;;1.10;;
11447;SDS011;43755;49.736;8.734;2022-09-03T04:06:57;1.27;;;1.23;;
11447;SDS011;43755;49.736;8.734;2022-09-03T04:08:59;2.55;;;0.90;;
11447;SDS011;43755;49.736;8.734;2022-09-03T04:11:02;1.10;;;1.10;;
11447;SDS011;43755;49.736;8.734;2022-09-03T04:13:05;1.73;;;1.20;;
11447;SDS011;43755;49.736;8.734;2022-09-03T04:15:06;0.98;;;0.98;;
11447;SDS011;43755;49.736;8.734;2022-09-03T04:17:08;1.63;;;0.90;;
11447;SDS011;43755;49.736;8.734;2022-09-03T04:19:09;1.20;;;1.10;;
11447;SDS011;43755;49.736;8.734;2022-09-03T04:21:12;1.23;;;0.95;;
11447;SDS011;43755;49.736;8.734;2022-09-03T04:23:15;1.38;;;1.20;;
11447;SDS011;43755;49.736;8.734;2022-09-03T04:25:16;1.10;;;1.10;;
11447;SDS011;43755;49.736;8.734;2022-09-03T04:27:19;1.55;;;1.33;;
11447;SDS011;43755;49.736;8.734;2022-09-03T04:29:21;1.40;;;1.30;;
11447;SDS011;43755;49.736;8.734;2022-09-03T04:31:22;1.85;;;1.27;;
11447;SDS011;43755;49.736;8.734;2022-09-03T04:33:24;1.13;;;1.10;;
11447;SDS011;43755;49.736;8.734;2022-09-03T04:35:25;1.30;;;1.20;;
11447;SDS011;43755;49.736;8.734;2022-09-03T04:37:32;1.35;;;1.25;;
11447;SDS011;43755;49.736;8.734;2022-09-03T04:39:34;1.80;;;1.23;;
11447;SDS011;43755;49.736;8.734;2022-09-03T04:41:35;1.63;;;1.05;;
11447;SDS011;43755;49.736;8.734;2022-09-03T04:43:38;1.13;;;0.98;;
11447;SDS011;43755;49.736;8.734;2022-09-03T04:45:41;1.33;;;1.23;;
11447;SDS011;43755;49.736;8.734;2022-09-03T04:47:43;3.08;;;1.13;;
11447;SDS011;43755;49.736;8.734;2022-09-03T04:49:45;1.10;;;1.10;;
11447;SDS011;43755;49.736;8.734;2022-09-03T04:51:47;2.42;;;1.25;;
11447;SDS011;43755;49.736;8.734;2022-09-03T04:53:51;1.40;;;1.30;;
11447;SDS011;43755;49.736;8.734;2022-09-03T04:55:55;1.08;;;1.08;;
11447;SDS011;43755;49.736;8.734;2022-09-03T04:57:57;1.33;;;1.23;;
11447;SDS011;43755;49.736;8.734;2022-09-03T05:00:00;1.90;;;1.30;;
11447;SDS011;43755;49.736;8.734;2022-09-03T05:02:02;1.10;;;1.10;;
11447;SDS011;43755;49.736;8.734;2022-09-03T05:04:03;1.20;;;1.10;;
11447;SDS011;43755;49.736;8.734;2022-09-03T05:06:06;1.10;;;1.10;;
11447;SDS011;43755;49.736;8.734;2022-09-03T05:08:07;1.00;;;1.00;;
11447;SDS011;43755;49.736;8.734;2022-09-03T05:10:10;2.42;;;1.20;;
11447;SDS011;43755;49.736;8.734;2022-09-03T05:12:15;3.08;;;1.20;;
11447;SDS011;43755;49.736;8.734;2022-09-03T05:14:16;1.48;;;1.25;;
11447;SDS011;43755;49.736;8.734;2022-09-03T05:16:20;1.30;;;1.20;;
11447;SDS011;43755;49.736;8.734;2022-09-03T05:18:22;2.97;;;1.13;;
11447;SDS011;43755;49.736;8.734;2022-09-03T05:20:24;1.30;;;1.10;;
11447;SDS011;43755;49.736;8.734;2022-09-03T05:22:25;1.70;;;1.33;;
11447;SDS011;43755;49.736;8.734;2022-09-03T05:24:27;1.67;;;1.15;;
11447;SDS011;43755;49.736;8.734;2022-09-03T05:26:29;1.35;;;1.08;;
11447;SDS011;43755;49.736;8.734;2022-09-03T05:28:31;2.15;;;1.13;;
11447;SDS011;43755;49.736;8.734;2022-09-03T05:30:32;1.60;;;1.17;;
11447;SDS011;43755;49.736;8.734;2022-09-03T05:32:37;1.25;;;1.15;;
11447;SDS011;43755;49.736;8.734;2022-09-03T05:34:38;1.35;;;1.25;;
11447;SDS011;43755;49.736;8.734;2022-09-03T05:36:39;1.30;;;1.20;;
11447;SDS011;43755;49.736;8.734;2022-09-03T05:38:41;1.10;;;1.10;;
11447;SDS011;43755;49.736;8.734;2022-09-03T05:40:43;2.67;;;1.30;;
11447;SDS011;43755;49.736;8.734;2022-09-03T05:42:45;1.35;;;1.15;;
11447;SDS011;43755;49.736;8.734;2022-09-03T05:44:46;1.23;;;1.17;;
11447;SDS011;43755;49.736;8.734;2022-09-03T05:46:48;2.90;;;1.40;;
11447;SDS011;43755;49.736;8.734;2022-09-03T05:48:51;2.25;;;1.20;;
11447;SDS011;43755;49.736;8.734;2022-09-03T05:50:59;1.13;;;1.13;;
11447;SDS011;43755;49.736;8.734;2022-09-03T05:53:01;3.13;;;1.27;;
11447;SDS011;43755;49.736;8.734;2022-09-03T05:55:02;1.48;;;1.38;;
11447;SDS011;43755;49.736;8.734;2022-09-03T05:57:04;1.50;;;1.40;;
11447;SDS011;43755;49.736;8.734;2022-09-03T05:59:06;3.78;;;1.50;;
11447;SDS011;43755;49.736;8.734;2022-09-03T06:01:09;1.35;;;1.30;;
11447;SDS011;43755;49.736;8.734;2022-09-03T06:03:12;1.75;;;1.40;;
11447;SDS011;43755;49.736;8.734;2022-09-03T06:05:14;2.60;;;1.77;;
11447;SDS011;43755;49.736;8.734;2022-09-03T06:07:17;2.47;;;1.50;;
11447;SDS011;43755;49.736;8.734;2022-09-03T06:09:20;2.30;;;1.65;;
11447;SDS011;43755;49.736;8.734;2022-09-03T06:11:22;2.08;;;1.38;;
11447;SDS011;43755;49.736;8.734;2022-09-03T06:13:28;1.50;;;1.40;;
11447;SDS011;43755;49.736;8.734;2022-09-03T06:15:30;1.60;;;1.50;;
11447;SDS011;43755;49.736;8.734;2022-09-03T06:17:31;1.85;;;1.40;;
11447;SDS011;43755;49.736;8.734;2022-09-03T06:19:33;2.35;;;1.50;;
11447;SDS011;43755;49.736;8.734;2022-09-03T06:21:36;2.75;;;1.25;;
11447;SDS011;43755;49.736;8.734;2022-09-03T06:23:41;1.90;;;1.65;;
11447;SDS011;43755;49.736;8.734;2022-09-03T06:25:43;1.70;;;1.60;;
11447;SDS011;43755;49.736;8.734;2022-09-03T06:27:44;1.55;;;1.40;;
11447;SDS011;43755;49.736;8.734;2022-09-03T06:29:46;1.95;;;1.73;;
11447;SDS011;43755;49.736;8.734;2022-09-03T06:31:47;1.70;;;1.60;;
11447;SDS011;43755;49.736;8.734;2022-09-03T06:33:49;1.80;;;1.70;;
11447;SDS011;43755;49.736;8.734;2022-09-03T06:35:52;1.67;;;1.52;;
11447;SDS011;43755;49.736;8.734;2022-09-03T06:37:58;1.70;;;1.60;;
11447;SDS011;43755;49.736;8.734;2022-09-03T06:39:59;1.70;;;1.60;;
11447;SDS011;43755;49.736;8.734;2022-09-03T06:42:01;1.60;;;1.50;;
11447;SDS011;43755;49.736;8.734;2022-09-03T06:44:03;2.00;;;1.60;;
11447;SDS011;43755;49.736;8.734;2022-09-03T06:46:11;3.97;;;1.60;;
11447;SDS011;43755;49.736;8.734;2022-09-03T06:48:14;1.80;;;1.70;;
11447;SDS011;43755;49.736;8.734;2022-09-03T06:50:15;1.55;;;1.45;;
11447;SDS011;43755;49.736;8.734;2022-09-03T06:52:17;1.70;;;1.60;;
11447;SDS011;43755;49.736;8.734;2022-09-03T06:54:20;2.92;;;1.60;;
11447;SDS011;43755;49.736;8.734;2022-09-03T06:56:24;1.52;;;1.40;;
11447;SDS011;43755;49.736;8.734;2022-09-03T06:58:27;1.60;;;1.48;;
11447;SDS011;43755;49.736;8.734;2022-09-03T07:00:29;1.80;;;1.70;;
11447;SDS011;43755;49.736;8.734;2022-09-03T07:02:31;1.52;;;1.42;;
11447;SDS011;43755;49.736;8.734;2022-09-03T07:04:33;1.70;;;1.60;;
11447;SDS011;43755;49.736;8.734;2022-09-03T07:06:35;2.00;;;1.40;;
11447;SDS011;43755;49.736;8.734;2022-09-03T07:08:37;1.40;;;1.30;;
11447;SDS011;43755;49.736;8.734;2022-09-03T07:10:45;2.95;;;1.95;;
11447;SDS011;43755;49.736;8.734;2022-09-03T07:12:48;2.33;;;1.67;;
11447;SDS011;43755;49.736;8.734;2022-09-03T07:14:49;2.70;;;1.67;;
11447;SDS011;43755;49.736;8.734;2022-09-03T07:16:50;5.85;;;2.20;;
11447;SDS011;43755;49.736;8.734;2022-09-03T07:18:52;3.47;;;1.67;;
11447;SDS011;43755;49.736;8.734;2022-09-03T07:20:58;2.05;;;1.58;;
11447;SDS011;43755;49.736;8.734;2022-09-03T07:23:00;2.22;;;1.58;;
11447;SDS011;43755;49.736;8.734;2022-09-03T07:25:02;1.70;;;1.60;;
11447;SDS011;43755;49.736;8.734;2022-09-03T07:27:06;3.15;;;1.65;;
11447;SDS011;43755;49.736;8.734;2022-09-03T07:29:07;1.88;;;1.77;;
11447;SDS011;43755;49.736;8.734;2022-09-03T07:31:11;3.75;;;2.78;;
11447;SDS011;43755;49.736;8.734;2022-09-03T07:33:14;2.97;;;2.10;;
11447;SDS011;43755;49.736;8.734;2022-09-03T07:35:16;5.25;;;2.13;;
11447;SDS011;43755;49.736;8.734;2022-09-03T07:37:18;3.05;;;2.00;;
11447;SDS011;43755;49.736;8.734;2022-09-03T07:39:20;4.70;;;1.98;;
11447;SDS011;43755;49.736;8.734;2022-09-03T07:41:21;3.45;;;1.92;;
11447;SDS011;43755;49.736;8.734;2022-09-03T07:43:26;2.55;;;1.77;;
11447;SDS011;43755;49.736;8.734;2022-09-03T07:45:28;2.95;;;1.60;;
11447;SDS011;43755;49.736;8.734;2022-09-03T07:47:30;2.92;;;1.85;;
11447;SDS011;43755;49.736;8.734;2022-09-03T07:49:33;1.67;;;1.58;;
11447;SDS011;43755;49.736;8.734;2022-09-03T07:51:36;3.97;;;1.88;;
11447;SDS011;43755;49.736;8.734;2022-09-03T07:53:38;2.38;;;1.85;;
11447;SDS011;43755;49.736;8.734;2022-09-03T07:55:40;1.65;;;1.55;;
11447;SDS011;43755;49.736;8.734;2022-09-03T07:57:41;2.70;;;2.03;;
11447;SDS011;43755;49.736;8.734;2022-09-03T07:59:44;1.90;;;1.70;;
11447;SDS011;43755;49.736;8.734;2022-09-03T08:01:45;2.13;;;1.92;;
11447;SDS011;43755;49.736;8.734;2022-09-03T08:03:47;4.00;;;1.88;;
11447;SDS011;43755;49.736;8.734;2022-09-03T08:05:50;1.80;;;1.70;;
11447;SDS011;43755;49.736;8.734;2022-09-03T08:07:51;3.17;;;2.15;;
11447;SDS011;43755;49.736;8.734;2022-09-03T08:09:53;3.28;;;2.10;;
11447;SDS011;43755;49.736;8.734;2022-09-03T08:11:54;2.33;;;2.00;;
11447;SDS011;43755;49.736;8.734;2022-09-03T08:13:56;3.50;;;1.80;;
11447;SDS011;43755;49.736;8.734;2022-09-03T08:16:03;2.22;;;1.83;;
11447;SDS011;43755;49.736;8.734;2022-09-03T08:18:04;2.00;;;1.90;;
11447;SDS011;43755;49.736;8.734;2022-09-03T08:20:06;1.85;;;1.60;;
11447;SDS011;43755;49.736;8.734;2022-09-03T08:22:09;2.50;;;1.77;;
11447;SDS011;43755;49.736;8.734;2022-09-03T08:24:11;1.70;;;1.60;;
11447;SDS011;43755;49.736;8.734;2022-09-03T08:26:14;1.80;;;1.70;;
11447;SDS011;43755;49.736;8.734;2022-09-03T08:28:17;2.22;;;2.00;;
11447;SDS011;43755;49.736;8.734;2022-09-03T08:30:18;3.22;;;1.77;;
11447;SDS011;43755;49.736;8.734;2022-09-03T08:32:21;2.10;;;1.73;;
11447;SDS011;43755;49.736;8.734;2022-09-03T08:34:23;1.80;;;1.70;;
11447;SDS011;43755;49.736;8.734;2022-09-03T08:36:25;1.97;;;1.80;;
11447;SDS011;43755;49.736;8.734;2022-09-03T08:38:30;1.70;;;1.60;;
11447;SDS011;43755;49.736;8.734;2022-09-03T08:40:32;1.87;;;1.73;;
11447;SDS011;43755;49.736;8.734;2022-09-03T08:42:48;1.80;;;1.70;;
11447;SDS011;43755;49.736;8.734;2022-09-03T08:44:59;2.13;;;1.70;;
11447;SDS011;43755;49.736;8.734;2022-09-03T08:47:04;1.95;;;1.50;;
11447;SDS011;43755;49.736;8.734;2022-09-03T08:49:12;1.70;;;1.60;;
11447;SDS011;43755;49.736;8.734;2022-09-03T08:51:19;2.08;;;1.90;;
11447;SDS011;43755;49.736;8.734;2022-09-03T08:53:27;3.30;;;1.67;;
11447;SDS011;43755;49.736;8.734;2022-09-03T08:55:38;2.63;;;1.80;;
11447;SDS011;43755;49.736;8.734;2022-09-03T08:57:47;3.40;;;1.98;;
11447;SDS011;43755;49.736;8.734;2022-09-03T08:59:52;2.27;;;1.50;;
11447;SDS011;43755;49.736;8.734;2022-09-03T09:01:56;1.73;;;1.63;;
11447;SDS011;43755;49.736;8.734;2022-09-03T09:04:08;2.03;;;1.92;;
11447;SDS011;43755;49.736;8.734;2022-09-03T09:06:20;2.10;;;2.00;;
11447;SDS011;43755;49.736;8.734;2022-09-03T09:08:27;1.77;;;1.67;;
11447;SDS011;43755;49.736;8.734;2022-09-03T09:10:36;1.80;;;1.70;;
11447;SDS011;43755;49.736;8.734;2022-09-03T09:12:46;2.08;;;1.98;;
11447;SDS011;43755;49.736;8.734;2022-09-03T09:15:06;2.00;;;1.90;;
11447;SDS011;43755;49.736;8.734;2022-09-03T09:17:19;2.20;;;2.00;;
11447;SDS011;43755;49.736;8.734;2022-09-03T09:19:36;2.13;;;2.00;;
11447;SDS011;43755;49.736;8.734;2022-09-03T09:21:43;2.50;;;2.07;;
11447;SDS011;43755;49.736;8.734;2022-09-03T09:23:51;1.97;;;1.87;;
11447;SDS011;43755;49.736;8.734;2022-09-03T09:25:53;2.00;;;1.90;;
11447;SDS011;43755;49.736;8.734;2022-09-03T09:27:58;2.23;;;2.03;;
11447;SDS011;43755;49.736;8.734;2022-09-03T09:30:03;1.73;;;1.70;;
11447;SDS011;43755;49.736;8.734;2022-09-03T09:32:06;1.80;;;1.70;;
11447;SDS011;43755;49.736;8.734;2022-09-03T09:34:10;2.37;;;1.97;;
11447;SDS011;43755;49.736;8.734;2022-09-03T09:36:15;2.10;;;2.00;;
11447;SDS011;43755;49.736;8.734;2022-09-03T09:38:26;2.37;;;2.10;;
11447;SDS011;43755;49.736;8.734;2022-09-03T09:40:30;2.05;;;1.92;;
11447;SDS011;43755;49.736;8.734;2022-09-03T09:42:33;2.80;;;2.60;;
11447;SDS011;43755;49.736;8.734;2022-09-03T09:44:34;2.80;;;1.90;;
11447;SDS011;43755;49.736;8.734;2022-09-03T09:46:37;1.80;;;1.70;;
11447;SDS011;43755;49.736;8.734;2022-09-03T09:48:45;2.05;;;1.85;;
11447;SDS011;43755;49.736;8.734;2022-09-03T09:50:49;2.33;;;2.10;;
11447;SDS011;43755;49.736;8.734;2022-09-03T09:53:07;2.60;;;2.40;;
11447;SDS011;43755;49.736;8.734;2022-09-03T09:55:15;2.53;;;2.33;;
11447;SDS011;43755;49.736;8.734;2022-09-03T09:57:20;3.10;;;2.78;;
11447;SDS011;43755;49.736;8.734;2022-09-03T09:59:23;2.60;;;2.40;;
11447;SDS011;43755;49.736;8.734;2022-09-03T10:01:24;3.60;;;2.33;;
11447;SDS011;43755;49.736;8.734;2022-09-03T10:03:30;3.42;;;2.85;;
11447;SDS011;43755;49.736;8.734;2022-09-03T10:05:34;2.40;;;2.30;;
11447;SDS011;43755;49.736;8.734;2022-09-03T10:07:36;3.03;;;2.72;;
11447;SDS011;43755;49.736;8.734;2022-09-03T10:09:39;3.88;;;2.83;;
11447;SDS011;43755;49.736;8.734;2022-09-03T10:11:41;2.90;;;2.70;;
11447;SDS011;43755;49.736;8.734;2022-09-03T10:13:46;3.35;;;3.08;;
11447;SDS011;43755;49.736;8.734;2022-09-03T10:15:50;3.07;;;2.90;;
11447;SDS011;43755;49.736;8.734;2022-09-03T10:17:59;3.33;;;3.00;;
11447;SDS011;43755;49.736;8.734;2022-09-03T10:20:08;2.97;;;2.57;;
11447;SDS011;43755;49.736;8.734;2022-09-03T10:22:30;4.40;;;3.10;;
11447;SDS011;43755;49.736;8.734;2022-09-03T10:24:46;3.17;;;2.97;;
11447;SDS011;43755;49.736;8.734;2022-09-03T10:26:52;3.13;;;2.92;;
11447;SDS011;43755;49.736;8.734;2022-09-03T10:28:55;3.50;;;3.20;;
11447;SDS011;43755;49.736;8.734;2022-09-03T10:31:02;3.75;;;3.45;;
11447;SDS011;43755;49.736;8.734;2022-09-03T10:33:15;3.65;;;3.40;;
11447;SDS011;43755;49.736;8.734;2022-09-03T10:35:28;3.20;;;3.00;;
11447;SDS011;43755;49.736;8.734;2022-09-03T10:37:33;3.87;;;3.27;;
11447;SDS011;43755;49.736;8.734;2022-09-03T10:39:43;3.07;;;2.87;;
11447;SDS011;43755;49.736;8.734;2022-09-03T10:42:01;3.10;;;2.90;;
11447;SDS011;43755;49.736;8.734;2022-09-03T10:44:15;3.10;;;2.90;;
11447;SDS011;43755;49.736;8.734;2022-09-03T10:46:35;3.00;;;2.70;;
11447;SDS011;43755;49.736;8.734;2022-09-03T10:48:53;3.23;;;2.97;;
11447;SDS011;43755;49.736;8.734;2022-09-03T10:51:08;2.80;;;2.60;;
11447;SDS011;43755;49.736;8.734;2022-09-03T10:53:20;2.70;;;2.50;;
11447;SDS011;43755;49.736;8.734;2022-09-03T10:55:38;3.00;;;2.80;;
11447;SDS011;43755;49.736;8.734;2022-09-03T10:57:48;2.73;;;2.50;;
11447;SDS011;43755;49.736;8.734;2022-09-03T11:00:02;2.97;;;2.77;;
11447;SDS011;43755;49.736;8.734;2022-09-03T11:02:14;2.30;;;2.20;;
11447;SDS011;43755;49.736;8.734;2022-09-03T11:04:27;2.50;;;2.40;;
11447;SDS011;43755;49.736;8.734;2022-09-03T11:06:29;2.63;;;2.53;;
11447;SDS011;43755;49.736;8.734;2022-09-03T11:08:40;2.43;;;2.30;;
11447;SDS011;43755;49.736;8.734;2022-09-03T11:10:47;2.40;;;2.30;;
11447;SDS011;43755;49.736;8.734;2022-09-03T11:12:52;2.50;;;2.30;;
11447;SDS011;43755;49.736;8.734;2022-09-03T11:15:02;2.30;;;2.13;;
11447;SDS011;43755;49.736;8.734;2022-09-03T11:17:10;2.00;;;1.90;;
11447;SDS011;43755;49.736;8.734;2022-09-03T11:19:17;2.33;;;2.07;;
11447;SDS011;43755;49.736;8.734;2022-09-03T11:21:23;2.30;;;2.10;;
11447;SDS011;43755;49.736;8.734;2022-09-03T11:23:27;2.20;;;2.10;;
11447;SDS011;43755;49.736;8.734;2022-09-03T11:25:33;2.40;;;2.30;;
11447;SDS011;43755;49.736;8.734;2022-09-03T11:27:44;3.03;;;2.50;;
11447;SDS011;43755;49.736;8.734;2022-09-03T11:29:56;2.47;;;2.27;;
11447;SDS011;43755;49.736;8.734;2022-09-03T11:32:02;2.17;;;2.07;;
11447;SDS011;43755;49.736;8.734;2022-09-03T11:34:11;2.27;;;2.17;;
11447;SDS011;43755;49.736;8.734;2022-09-03T11:36:16;2.20;;;2.10;;
11447;SDS011;43755;49.736;8.734;2022-09-03T11:38:29;2.37;;;2.10;;
11447;SDS011;43755;49.736;8.734;2022-09-03T11:40:31;1.83;;;1.73;;
11447;SDS011;43755;49.736;8.734;2022-09-03T11:42:35;1.90;;;1.80;;
11447;SDS011;43755;49.736;8.734;2022-09-03T11:44:40;1.50;;;1.50;;
11447;SDS011;43755;49.736;8.734;2022-09-03T11:46:52;1.60;;;1.50;;
11447;SDS011;43755;49.736;8.734;2022-09-03T11:48:55;1.30;;;1.30;;
11447;SDS011;43755;49.736;8.734;2022-09-03T11:51:19;1.23;;;1.23;;
11447;SDS011;43755;49.736;8.734;2022-09-03T11:53:34;1.30;;;1.30;;
11447;SDS011;43755;49.736;8.734;2022-09-03T11:55:47;1.20;;;1.10;;
11447;SDS011;43755;49.736;8.734;2022-09-03T11:57:53;1.53;;;1.43;;
11447;SDS011;43755;49.736;8.734;2022-09-03T12:00:07;1.67;;;1.60;;
11447;SDS011;43755;49.736;8.734;2022-09-03T12:02:15;1.60;;;1.50;;
11447;SDS011;43755;49.736;8.734;2022-09-03T12:04:24;1.40;;;1.40;;
11447;SDS011;43755;49.736;8.734;2022-09-03T12:06:38;1.70;;;1.60;;
11447;SDS011;43755;49.736;8.734;2022-09-03T12:08:52;1.60;;;1.50;;
11447;SDS011;43755;49.736;8.734;2022-09-03T12:11:09;1.40;;;1.40;;
11447;SDS011;43755;49.736;8.734;2022-09-03T12:13:34;2.47;;;1.63;;
11447;SDS011;43755;49.736;8.734;2022-09-03T12:15:51;1.60;;;1.50;;
11447;SDS011;43755;49.736;8.734;2022-09-03T12:18:05;2.70;;;1.80;;
11447;SDS011;43755;49.736;8.734;2022-09-03T12:20:26;1.90;;;1.80;;
11447;SDS011;43755;49.736;8.734;2022-09-03T12:22:28;1.93;;;1.70;;
11447;SDS011;43755;49.736;8.734;2022-09-03T12:24:37;1.40;;;1.40;;
11447;SDS011;43755;49.736;8.734;2022-09-03T12:26:39;1.70;;;1.60;;
11447;SDS011;43755;49.736;8.734;2022-09-03T12:28:43;1.97;;;1.87;;
11447;SDS011;43755;49.736;8.734;2022-09-03T12:30:46;1.93;;;1.47;;
11447;SDS011;43755;49.736;8.734;2022-09-03T12:32:49;1.80;;;1.70;;
11447;SDS011;43755;49.736;8.734;2022-09-03T12:34:51;1.83;;;1.73;;
11447;SDS011;43755;49.736;8.734;2022-09-03T12:36:53;1.60;;;1.60;;
11447;SDS011;43755;49.736;8.734;2022-09-03T12:38:55;1.70;;;1.60;;